Time;durP1;ratioP1;P1;durP2;ratioP2;P2;SDS_P1;SDS_P2;PMS_P1;PMS_P2;Temp;Humidity;BMP_temperature;BMP_pressure;BME280_temperature;BME280_humidity;BME280_pressure;Samples;Min_cycle;Max_cycle;Signal;HPM_P1;HPM_P2
2022/07/20 00:01:07;;;;;;;29.60;17.05;;;;;;;;;;5055179;28;20422;-78
2022/07/20 00:03:53;;;;;;;24.27;14.82;;;;;;;;;;5054725;28;20531;-78
2022/07/20 00:06:39;;;;;;;23.73;13.70;;;;;;;;;;5055039;28;20490;-78
2022/07/20 00:12:28;;;;;;;19.08;11.15;;;;;;;;;;5054413;28;20044;-78
2022/07/20 00:15:14;;;;;;;16.88;10.18;;;;;;;;;;5054741;28;20048;-78
2022/07/20 00:17:59;;;;;;;13.65;7.68;;;;;;;;;;5054441;28;20413;-79
2022/07/20 00:20:45;;;;;;;11.15;6.47;;;;;;;;;;5054838;28;20041;-79
2022/07/20 00:23:30;;;;;;;9.52;5.50;;;;;;;;;;5061863;28;20049;-79
2022/07/20 00:26:16;;;;;;;9.77;4.30;;;;;;;;;;5054153;28;20426;-78
2022/07/20 00:29:02;;;;;;;5.03;3.17;;;;;;;;;;5061560;28;20037;-78
2022/07/20 00:31:47;;;;;;;4.95;3.33;;;;;;;;;;5054286;28;20049;-78
2022/07/20 00:34:32;;;;;;;3.58;2.63;;;;;;;;;;5054222;28;20036;-78
2022/07/20 00:37:18;;;;;;;10.20;2.90;;;;;;;;;;5054565;28;20045;-78
2022/07/20 00:40:05;;;;;;;6.30;2.50;;;;;;;;;;5060729;28;20395;-78
2022/07/20 00:42:50;;;;;;;2.88;2.38;;;;;;;;;;5054158;28;20049;-78
2022/07/20 00:45:36;;;;;;;3.10;2.30;;;;;;;;;;5054486;28;20070;-78
2022/07/20 00:48:21;;;;;;;3.45;2.50;;;;;;;;;;5054014;28;20045;-79
2022/07/20 00:51:07;;;;;;;4.20;2.55;;;;;;;;;;5054603;28;20044;-78
2022/07/20 00:53:53;;;;;;;7.85;2.42;;;;;;;;;;5053846;28;20497;-79
2022/07/20 00:56:39;;;;;;;3.50;2.42;;;;;;;;;;5054286;28;20049;-79
2022/07/20 00:59:24;;;;;;;3.85;2.45;;;;;;;;;;5054606;28;20045;-79
2022/07/20 01:02:10;;;;;;;5.68;2.50;;;;;;;;;;5054087;28;20044;-79
2022/07/20 01:04:55;;;;;;;4.00;2.40;;;;;;;;;;5054551;28;20048;-78
2022/07/20 01:07:43;;;;;;;4.03;2.63;;;;;;;;;;5053877;28;20053;-78
2022/07/20 01:10:28;;;;;;;4.55;2.45;;;;;;;;;;5053955;28;20041;-78
2022/07/20 01:13:14;;;;;;;6.72;2.90;;;;;;;;;;5054537;28;20485;-78
2022/07/20 01:15:59;;;;;;;7.43;2.58;;;;;;;;;;5052934;28;20045;-78
2022/07/20 01:18:45;;;;;;;4.60;2.78;;;;;;;;;;5054183;28;20045;-78
2022/07/20 01:21:31;;;;;;;4.18;2.72;;;;;;;;;;5060412;28;20036;-78
2022/07/20 01:24:16;;;;;;;4.38;2.85;;;;;;;;;;5053550;28;20052;-79
2022/07/20 01:27:04;;;;;;;4.18;2.65;;;;;;;;;;5054062;28;20057;-79
2022/07/20 01:29:49;;;;;;;5.35;2.83;;;;;;;;;;5059102;28;20036;-78
2022/07/20 01:32:34;;;;;;;5.30;2.97;;;;;;;;;;5053717;28;20045;-78
2022/07/20 01:35:19;;;;;;;5.82;2.97;;;;;;;;;;5053623;28;20049;-78
2022/07/20 01:38:05;;;;;;;4.60;2.75;;;;;;;;;;5053080;28;20037;-79
2022/07/20 01:40:50;;;;;;;4.57;2.50;;;;;;;;;;5053782;28;20486;-78
2022/07/20 01:43:36;;;;;;;4.22;2.50;;;;;;;;;;5052625;28;20479;-78
2022/07/20 01:46:22;;;;;;;3.45;2.33;;;;;;;;;;5038549;28;20045;-78
2022/07/20 01:49:07;;;;;;;7.97;2.80;;;;;;;;;;5053100;28;20214;-78
2022/07/20 01:51:54;;;;;;;4.00;2.97;;;;;;;;;;5052884;28;20041;-79
2022/07/20 01:54:39;;;;;;;6.32;2.55;;;;;;;;;;5053296;28;20045;-78
2022/07/20 01:57:25;;;;;;;6.20;2.63;;;;;;;;;;5052939;28;20045;-78
2022/07/20 02:00:12;;;;;;;4.95;2.88;;;;;;;;;;5053257;28;20049;-78
2022/07/20 02:02:57;;;;;;;6.07;2.70;;;;;;;;;;5044852;28;20048;-78
2022/07/20 02:05:42;;;;;;;7.38;3.10;;;;;;;;;;5052715;28;20041;-79
2022/07/20 02:08:28;;;;;;;3.83;2.67;;;;;;;;;;5053611;28;20049;-79
2022/07/20 02:11:13;;;;;;;4.10;2.63;;;;;;;;;;5053278;28;20037;-78
2022/07/20 02:13:59;;;;;;;6.43;2.80;;;;;;;;;;5053039;28;20048;-79
2022/07/20 02:16:44;;;;;;;3.65;2.90;;;;;;;;;;5053143;28;20048;-80
2022/07/20 02:19:30;;;;;;;4.78;2.70;;;;;;;;;;5053119;28;20049;-80
2022/07/20 02:22:15;;;;;;;3.25;2.65;;;;;;;;;;5053206;28;20490;-80
2022/07/20 02:25:01;;;;;;;3.83;2.97;;;;;;;;;;5053060;28;20394;-79
2022/07/20 02:27:46;;;;;;;4.18;2.70;;;;;;;;;;5053240;28;20049;-78
2022/07/20 02:30:32;;;;;;;4.53;2.80;;;;;;;;;;5053075;28;20049;-79
2022/07/20 02:33:18;;;;;;;3.25;2.55;;;;;;;;;;5052554;28;20973;-79
2022/07/20 02:36:04;;;;;;;4.78;2.97;;;;;;;;;;5052606;28;20049;-79
2022/07/20 02:38:49;;;;;;;5.43;2.60;;;;;;;;;;5052872;28;20045;-78
2022/07/20 02:41:35;;;;;;;6.32;2.63;;;;;;;;;;5055806;28;20041;-78
2022/07/20 02:44:20;;;;;;;5.32;2.58;;;;;;;;;;5056354;28;20053;-78
2022/07/20 02:47:06;;;;;;;5.55;2.95;;;;;;;;;;5056620;28;20049;-79
2022/07/20 02:49:51;;;;;;;8.38;2.63;;;;;;;;;;5056659;28;20052;-78
2022/07/20 02:52:42;;;;;;;7.13;3.20;;;;;;;;;;5063319;28;20053;-78
2022/07/20 02:55:28;;;;;;;5.70;3.00;;;;;;;;;;5055843;28;20044;-78
2022/07/20 02:58:13;;;;;;;5.97;3.00;;;;;;;;;;5056736;28;20390;-77
2022/07/20 03:00:59;;;;;;;10.48;3.20;;;;;;;;;;5063400;28;20045;-78
2022/07/20 03:03:44;;;;;;;6.57;2.92;;;;;;;;;;5041128;28;20049;-78
2022/07/20 03:06:30;;;;;;;6.25;2.70;;;;;;;;;;5056512;28;20048;-78
2022/07/20 03:09:15;;;;;;;4.15;2.70;;;;;;;;;;5055844;28;20044;-78
2022/07/20 03:12:01;;;;;;;7.10;2.90;;;;;;;;;;5056126;28;20049;-80
2022/07/20 03:14:46;;;;;;;3.83;2.33;;;;;;;;;;5055984;28;20041;-78
2022/07/20 03:17:32;;;;;;;9.05;2.70;;;;;;;;;;5055553;28;20057;-78
2022/07/20 03:20:23;;;;;;;3.75;2.67;;;;;;;;;;5062633;28;20410;-78
2022/07/20 03:23:08;;;;;;;2.97;2.42;;;;;;;;;;5062172;28;20041;-79
2022/07/20 03:25:54;;;;;;;5.35;2.75;;;;;;;;;;5062432;28;20041;-79
2022/07/20 03:28:40;;;;;;;5.30;2.72;;;;;;;;;;5055903;28;20049;-79
2022/07/20 03:31:25;;;;;;;3.65;2.53;;;;;;;;;;5055239;28;20037;-79
2022/07/20 03:34:11;;;;;;;3.67;2.70;;;;;;;;;;5056051;28;20045;-79
2022/07/20 03:36:56;;;;;;;6.03;2.90;;;;;;;;;;5055052;28;20052;-79
2022/07/20 03:39:42;;;;;;;6.28;2.78;;;;;;;;;;5055411;28;20045;-80
2022/07/20 03:42:27;;;;;;;4.93;3.00;;;;;;;;;;5055289;28;20053;-79
2022/07/20 03:45:13;;;;;;;5.57;2.40;;;;;;;;;;5054913;28;20048;-79
2022/07/20 03:47:59;;;;;;;8.85;2.72;;;;;;;;;;5055629;28;20045;-82
2022/07/20 03:50:46;;;;;;;6.22;3.08;;;;;;;;;;5055553;28;20395;-78
2022/07/20 03:53:30;;;;;;;6.32;2.80;;;;;;;;;;5061441;28;20049;-77
2022/07/20 03:56:16;;;;;;;7.25;3.00;;;;;;;;;;5055069;28;20049;-78
2022/07/20 03:59:02;;;;;;;3.15;2.63;;;;;;;;;;5055128;28;20049;-79
2022/07/20 04:01:48;;;;;;;9.25;3.03;;;;;;;;;;5055365;28;20053;-78
2022/07/20 04:04:33;;;;;;;5.25;2.92;;;;;;;;;;5055138;28;20037;-77
2022/07/20 04:07:19;;;;;;;7.18;3.15;;;;;;;;;;5054832;28;20048;-78
2022/07/20 04:10:04;;;;;;;6.53;3.20;;;;;;;;;;5054988;28;20045;-77
2022/07/20 04:12:50;;;;;;;9.30;3.47;;;;;;;;;;5054849;28;20049;-77
2022/07/20 04:15:35;;;;;;;4.72;2.85;;;;;;;;;;5054869;28;20403;-77
2022/07/20 04:18:21;;;;;;;5.47;2.60;;;;;;;;;;5054949;28;20041;-77
2022/07/20 04:21:06;;;;;;;5.88;2.75;;;;;;;;;;5054333;28;20045;-78
2022/07/20 04:23:52;;;;;;;6.55;2.97;;;;;;;;;;5061300;28;20394;-77
2022/07/20 04:26:38;;;;;;;5.93;3.42;;;;;;;;;;5054560;28;20045;-78
2022/07/20 04:29:23;;;;;;;11.20;4.88;;;;;;;;;;5054564;28;20406;-77
2022/07/20 04:32:09;;;;;;;9.80;5.78;;;;;;;;;;5054663;28;20045;-77
2022/07/20 04:34:55;;;;;;;11.65;3.80;;;;;;;;;;5054126;28;20048;-77
2022/07/20 04:37:40;;;;;;;10.55;4.25;;;;;;;;;;5054763;28;20052;-76
2022/07/20 04:40:26;;;;;;;7.63;3.78;;;;;;;;;;5055059;28;20053;-77
2022/07/20 04:43:11;;;;;;;5.90;3.42;;;;;;;;;;5053542;28;20486;-78
2022/07/20 04:45:57;;;;;;;9.75;3.63;;;;;;;;;;5040878;28;20040;-76
2022/07/20 04:48:43;;;;;;;8.93;4.25;;;;;;;;;;5056051;28;20052;-77
2022/07/20 04:51:28;;;;;;;12.98;5.63;;;;;;;;;;5055796;28;20056;-78
2022/07/20 04:54:14;;;;;;;9.40;4.55;;;;;;;;;;5056595;28;20041;-77
2022/07/20 04:57:01;;;;;;;6.82;3.35;;;;;;;;;;5055875;28;20045;-77
2022/07/20 04:59:45;;;;;;;6.35;3.30;;;;;;;;;;5056794;28;20044;-77
2022/07/20 05:02:30;;;;;;;9.13;3.30;;;;;;;;;;5056720;28;20045;-78
2022/07/20 05:05:16;;;;;;;6.45;3.30;;;;;;;;;;5056464;28;20044;-78
2022/07/20 05:08:02;;;;;;;7.07;3.13;;;;;;;;;;5055272;28;20060;-78
2022/07/20 05:10:47;;;;;;;5.88;3.40;;;;;;;;;;5054076;28;20041;-77
2022/07/20 05:13:33;;;;;;;6.35;3.35;;;;;;;;;;5056091;28;20045;-77
2022/07/20 05:16:18;;;;;;;8.10;3.60;;;;;;;;;;5054576;28;20053;-77
2022/07/20 05:19:05;;;;;;;7.78;3.38;;;;;;;;;;5053858;28;20490;-77
2022/07/20 05:21:50;;;;;;;9.05;3.60;;;;;;;;;;5053622;28;20494;-77
2022/07/20 05:24:36;;;;;;;8.38;3.10;;;;;;;;;;5053036;28;20041;-77
2022/07/20 05:27:22;;;;;;;8.00;3.40;;;;;;;;;;5053689;28;20428;-77
2022/07/20 05:30:08;;;;;;;6.18;3.00;;;;;;;;;;5053870;28;20041;-76
2022/07/20 05:32:53;;;;;;;8.43;3.65;;;;;;;;;;5053078;28;20486;-77
2022/07/20 05:35:38;;;;;;;7.90;3.30;;;;;;;;;;5053541;28;20045;-77
2022/07/20 05:38:24;;;;;;;8.57;3.13;;;;;;;;;;5060178;28;20049;-76
2022/07/20 05:41:09;;;;;;;10.50;3.80;;;;;;;;;;5053481;28;20397;-76
2022/07/20 05:43:55;;;;;;;11.65;3.58;;;;;;;;;;5053348;28;20041;-77
2022/07/20 05:46:41;;;;;;;7.68;4.10;;;;;;;;;;5053165;28;20040;-77
2022/07/20 05:49:26;;;;;;;6.40;3.60;;;;;;;;;;5053487;28;20045;-77
2022/07/20 05:52:12;;;;;;;10.25;3.40;;;;;;;;;;5053319;28;20378;-77
2022/07/20 05:54:57;;;;;;;4.75;2.67;;;;;;;;;;5053264;28;20041;-77
2022/07/20 05:57:43;;;;;;;6.15;2.95;;;;;;;;;;5060056;28;20049;-77
2022/07/20 06:00:29;;;;;;;5.25;2.75;;;;;;;;;;5059552;28;20390;-77
2022/07/20 06:03:14;;;;;;;6.68;2.88;;;;;;;;;;5053662;28;20045;-78
2022/07/20 06:06:00;;;;;;;7.10;3.28;;;;;;;;;;5053457;28;20037;-78
2022/07/20 06:08:45;;;;;;;7.55;3.45;;;;;;;;;;5052737;28;20041;-77
2022/07/20 06:11:31;;;;;;;7.63;3.80;;;;;;;;;;5059709;28;20045;-78
2022/07/20 06:14:16;;;;;;;6.43;3.38;;;;;;;;;;5053180;28;20041;-78
2022/07/20 06:17:02;;;;;;;5.32;2.70;;;;;;;;;;5063528;28;20048;-78
2022/07/20 06:19:48;;;;;;;6.72;2.80;;;;;;;;;;5057106;28;20049;-77
2022/07/20 06:22:35;;;;;;;5.40;2.88;;;;;;;;;;5056364;28;20049;-77
2022/07/20 06:25:20;;;;;;;12.40;3.30;;;;;;;;;;5056947;28;20049;-77
2022/07/20 06:28:07;;;;;;;5.38;3.15;;;;;;;;;;5056801;28;20049;-78
2022/07/20 06:30:52;;;;;;;12.32;3.38;;;;;;;;;;5056842;28;20048;-78
2022/07/20 06:33:38;;;;;;;8.70;3.20;;;;;;;;;;5056947;28;20152;-76
2022/07/20 06:36:23;;;;;;;4.68;2.90;;;;;;;;;;5056074;28;20397;-78
2022/07/20 06:39:09;;;;;;;7.30;2.65;;;;;;;;;;5056751;28;20057;-77
2022/07/20 06:41:54;;;;;;;12.98;3.30;;;;;;;;;;5056904;28;20045;-78
2022/07/20 06:44:40;;;;;;;7.88;2.92;;;;;;;;;;5041161;28;20052;-85
2022/07/20 06:47:25;;;;;;;8.70;3.22;;;;;;;;;;5056180;28;20053;-82
2022/07/20 06:50:10;;;;;;;7.35;3.35;;;;;;;;;;5061963;28;20041;-80
2022/07/20 06:52:56;;;;;;;9.27;3.58;;;;;;;;;;5056632;28;20053;-80
2022/07/20 06:55:41;;;;;;;6.20;3.30;;;;;;;;;;5056535;28;20390;-81
2022/07/20 06:58:27;;;;;;;11.80;4.10;;;;;;;;;;5055788;28;20045;-80
2022/07/20 07:01:13;;;;;;;9.25;3.50;;;;;;;;;;5056163;28;20037;-80
2022/07/20 07:03:58;;;;;;;15.10;4.10;;;;;;;;;;5055816;28;20033;-81
2022/07/20 07:06:45;;;;;;;10.32;4.00;;;;;;;;;;5056341;28;20491;-80
2022/07/20 07:09:31;;;;;;;11.73;3.95;;;;;;;;;;5055973;28;20045;-81
2022/07/20 07:12:16;;;;;;;8.73;3.42;;;;;;;;;;5055313;28;20045;-80
2022/07/20 07:15:02;;;;;;;9.20;2.97;;;;;;;;;;5056204;28;20482;-81
2022/07/20 07:17:47;;;;;;;8.98;3.42;;;;;;;;;;5055534;28;20395;-80
2022/07/20 07:20:33;;;;;;;11.43;3.30;;;;;;;;;;5055823;28;20422;-80
2022/07/20 07:23:18;;;;;;;9.32;3.85;;;;;;;;;;5055769;28;20522;-79
2022/07/20 07:26:04;;;;;;;9.48;3.30;;;;;;;;;;5054629;28;20041;-81
2022/07/20 07:28:50;;;;;;;4.47;3.03;;;;;;;;;;5055866;28;20394;-82
2022/07/20 07:31:36;;;;;;;8.88;2.88;;;;;;;;;;5055615;28;20041;-81
2022/07/20 07:34:22;;;;;;;9.13;3.30;;;;;;;;;;5055644;28;20049;-81
2022/07/20 07:37:07;;;;;;;7.22;3.20;;;;;;;;;;5055345;28;20041;-80
2022/07/20 07:39:53;;;;;;;8.63;3.25;;;;;;;;;;5055100;28;20483;-80
2022/07/20 07:42:39;;;;;;;9.40;3.60;;;;;;;;;;5055723;28;20052;-79
2022/07/20 07:45:24;;;;;;;6.15;3.30;;;;;;;;;;5055773;28;20056;-80
2022/07/20 07:48:10;;;;;;;8.57;3.22;;;;;;;;;;5055012;28;20049;-79
2022/07/20 07:50:55;;;;;;;7.50;3.40;;;;;;;;;;5055575;28;20399;-79
2022/07/20 07:53:41;;;;;;;8.90;3.33;;;;;;;;;;5046571;28;20040;-79
2022/07/20 07:56:26;;;;;;;6.72;3.30;;;;;;;;;;5061661;28;20045;-79
2022/07/20 07:59:12;;;;;;;5.82;3.13;;;;;;;;;;5055580;28;20049;-80
2022/07/20 08:01:57;;;;;;;7.57;3.33;;;;;;;;;;5054754;28;20053;-82
2022/07/20 08:04:43;;;;;;;7.13;3.42;;;;;;;;;;5055136;28;20037;-80
2022/07/20 08:07:33;;;;;;;9.70;4.68;;;;;;;;;;5039825;28;20053;-82
2022/07/20 08:10:18;;;;;;;9.50;3.90;;;;;;;;;;5055129;28;20053;-82
2022/07/20 08:13:04;;;;;;;5.70;2.90;;;;;;;;;;5055264;28;20049;-81
2022/07/20 08:15:49;;;;;;;7.53;2.70;;;;;;;;;;5054408;28;20053;-81
2022/07/20 08:18:35;;;;;;;8.27;3.10;;;;;;;;;;5055284;28;20045;-81
2022/07/20 08:21:20;;;;;;;8.07;2.90;;;;;;;;;;5055006;28;20045;-80
2022/07/20 08:24:06;;;;;;;6.40;3.08;;;;;;;;;;5054553;28;20474;-79
2022/07/20 08:26:52;;;;;;;6.00;3.00;;;;;;;;;;5054719;28;20045;-80
2022/07/20 08:29:37;;;;;;;5.30;3.15;;;;;;;;;;5054173;28;20049;-79
2022/07/20 08:32:23;;;;;;;6.03;2.47;;;;;;;;;;5054591;28;20479;-81
2022/07/20 08:35:10;;;;;;;8.98;3.17;;;;;;;;;;5054465;28;20036;-80
2022/07/20 08:37:55;;;;;;;5.65;2.60;;;;;;;;;;5060107;28;20036;-79
2022/07/20 08:40:40;;;;;;;4.68;2.60;;;;;;;;;;5054660;28;20486;-79
2022/07/20 08:43:25;;;;;;;9.75;2.85;;;;;;;;;;5053483;28;20053;-78
2022/07/20 08:46:12;;;;;;;9.20;2.80;;;;;;;;;;5054197;28;20044;-79
2022/07/20 08:48:59;;;;;;;5.63;2.85;;;;;;;;;;5061152;28;20049;-79
2022/07/20 08:51:45;;;;;;;11.38;2.88;;;;;;;;;;5060459;28;20045;-81
2022/07/20 08:54:32;;;;;;;13.20;3.22;;;;;;;;;;5054122;28;20037;-79
2022/07/20 08:57:17;;;;;;;6.88;2.55;;;;;;;;;;5053456;28;20045;-78
2022/07/20 09:00:04;;;;;;;10.85;2.58;;;;;;;;;;5053940;28;20037;-76
2022/07/20 09:02:57;;;;;;;5.45;2.60;;;;;;;;;;5061070;28;20575;-78
2022/07/20 09:05:42;;;;;;;9.25;2.55;;;;;;;;;;5053227;28;20045;-78
2022/07/20 09:08:27;;;;;;;4.25;2.63;;;;;;;;;;5054016;28;20041;-79
2022/07/20 09:11:13;;;;;;;7.30;2.90;;;;;;;;;;5060519;28;20037;-78
2022/07/20 09:14:00;;;;;;;6.13;2.80;;;;;;;;;;5053889;28;20045;-78
2022/07/20 09:16:50;;;;;;;5.43;2.40;;;;;;;;;;5053613;28;20041;-78
2022/07/20 09:19:54;;;;;;;6.80;2.38;;;;;;;;;;5052981;28;20037;-78
2022/07/20 09:22:39;;;;;;;6.72;2.65;;;;;;;;;;5053778;28;20041;-77
2022/07/20 09:25:25;;;;;;;4.25;2.47;;;;;;;;;;5053910;28;20052;-77
2022/07/20 09:28:10;;;;;;;10.07;3.25;;;;;;;;;;5060085;28;20060;-76
2022/07/20 09:30:56;;;;;;;2.45;1.92;;;;;;;;;;5053819;28;20041;-78
2022/07/20 09:34:13;;;;;;;3.08;1.88;;;;;;;;;;5059835;28;20037;-78
2022/07/20 09:36:59;;;;;;;8.38;2.20;;;;;;;;;;5053287;28;20048;-79
2022/07/20 09:39:59;;;;;;;6.22;2.17;;;;;;;;;;5053512;28;20045;-78
2022/07/20 09:42:46;;;;;;;8.80;2.00;;;;;;;;;;5053398;28;20049;-79
2022/07/20 09:45:32;;;;;;;6.97;2.00;;;;;;;;;;5053441;28;20037;-79
2022/07/20 09:48:21;;;;;;;3.42;2.05;;;;;;;;;;5052920;28;20049;-78
2022/07/20 09:51:17;;;;;;;2.42;2.05;;;;;;;;;;5053098;28;20049;-78
2022/07/20 09:54:05;;;;;;;3.53;2.15;;;;;;;;;;5053483;28;20045;-78
2022/07/20 09:56:52;;;;;;;7.38;2.30;;;;;;;;;;5052882;28;20048;-78
2022/07/20 09:59:46;;;;;;;4.00;2.00;;;;;;;;;;5060287;28;20418;-78
2022/07/20 10:02:32;;;;;;;5.40;2.13;;;;;;;;;;5059364;28;20037;-77
2022/07/20 10:05:19;;;;;;;5.40;2.00;;;;;;;;;;5053271;28;20041;-77
2022/07/20 10:08:06;;;;;;;3.33;1.90;;;;;;;;;;5053145;28;20053;-76
2022/07/20 10:10:51;;;;;;;3.00;1.63;;;;;;;;;;5052609;28;20433;-77
2022/07/20 10:13:39;;;;;;;3.80;1.50;;;;;;;;;;5060430;28;20037;-78
2022/07/20 10:16:43;;;;;;;6.65;1.85;;;;;;;;;;5059293;28;20405;-78
2022/07/20 10:19:42;;;;;;;2.80;1.80;;;;;;;;;;5053254;28;20045;-78
2022/07/20 10:22:27;;;;;;;3.45;2.00;;;;;;;;;;5053617;28;20270;-77
2022/07/20 10:25:16;;;;;;;4.13;1.70;;;;;;;;;;5052942;28;20049;-76
2022/07/20 10:28:33;;;;;;;10.77;1.70;;;;;;;;;;5053052;28;20045;-78
2022/07/20 10:31:18;;;;;;;3.25;1.70;;;;;;;;;;5052432;28;20049;-77
2022/07/20 10:34:03;;;;;;;5.10;1.80;;;;;;;;;;5053059;28;20041;-78
2022/07/20 10:37:20;;;;;;;6.80;1.90;;;;;;;;;;5052598;28;20044;-78
2022/07/20 10:40:05;;;;;;;2.47;1.67;;;;;;;;;;5052907;28;20394;-77
2022/07/20 10:43:10;;;;;;;3.40;1.80;;;;;;;;;;5053108;28;20053;-77
2022/07/20 10:45:56;;;;;;;2.50;1.80;;;;;;;;;;5059076;28;20033;-76
2022/07/20 10:48:47;;;;;;;1.60;1.50;;;;;;;;;;5052813;28;20045;-77
2022/07/20 10:51:34;;;;;;;13.05;2.00;;;;;;;;;;5058985;28;20044;-76
2022/07/20 10:54:32;;;;;;;6.45;1.70;;;;;;;;;;5052638;28;20045;-78
2022/07/20 10:57:20;;;;;;;4.43;1.50;;;;;;;;;;5052366;28;20045;-79
2022/07/20 11:00:10;;;;;;;3.08;1.58;;;;;;;;;;5052228;28;20040;-78
2022/07/20 11:02:57;;;;;;;2.75;1.60;;;;;;;;;;5055056;28;20391;-78
2022/07/20 11:05:44;;;;;;;4.75;1.83;;;;;;;;;;5055778;28;20486;-78
2022/07/20 11:08:30;;;;;;;5.03;1.80;;;;;;;;;;5056087;28;20410;-78
2022/07/20 11:11:20;;;;;;;3.63;1.60;;;;;;;;;;5062718;28;20041;-77
2022/07/20 11:14:09;;;;;;;5.15;1.63;;;;;;;;;;5055625;28;20033;-77
2022/07/20 11:16:55;;;;;;;2.95;1.58;;;;;;;;;;5062449;28;20037;-78
2022/07/20 11:19:41;;;;;;;4.55;1.55;;;;;;;;;;5055625;28;20045;-77
2022/07/20 11:22:26;;;;;;;3.83;1.50;;;;;;;;;;5055967;28;20041;-77
2022/07/20 11:25:12;;;;;;;2.40;1.60;;;;;;;;;;5062672;28;20041;-76
2022/07/20 11:28:02;;;;;;;2.88;1.50;;;;;;;;;;5055356;28;20052;-75
2022/07/20 11:30:50;;;;;;;4.47;1.52;;;;;;;;;;5055694;28;20494;-74
2022/07/20 11:33:41;;;;;;;3.95;1.55;;;;;;;;;;5055916;28;20048;-75
2022/07/20 11:36:29;;;;;;;3.83;1.70;;;;;;;;;;5055544;28;20045;-76
2022/07/20 11:39:17;;;;;;;5.90;1.70;;;;;;;;;;5056075;28;20041;-79
2022/07/20 11:42:11;;;;;;;6.10;1.35;;;;;;;;;;5054905;28;20045;-76
2022/07/20 11:44:59;;;;;;;7.85;1.63;;;;;;;;;;5055343;28;20402;-75
2022/07/20 11:47:44;;;;;;;1.77;1.58;;;;;;;;;;5056105;28;20049;-75
2022/07/20 11:50:32;;;;;;;1.52;1.33;;;;;;;;;;5055142;28;20053;-78
2022/07/20 11:53:29;;;;;;;4.72;1.60;;;;;;;;;;5055533;28;20045;-75
2022/07/20 11:56:17;;;;;;;4.93;1.40;;;;;;;;;;5054911;28;20068;-74
2022/07/20 11:59:08;;;;;;;2.63;1.50;;;;;;;;;;5055258;28;20045;-75
2022/07/20 12:01:56;;;;;;;6.00;1.50;;;;;;;;;;5055551;28;20474;-76
2022/07/20 12:04:41;;;;;;;4.13;1.60;;;;;;;;;;5054956;28;20397;-75
2022/07/20 12:10:44;;;;;;;2.97;1.50;;;;;;;;;;5054560;28;20046;-75
2022/07/20 12:13:31;;;;;;;3.70;1.55;;;;;;;;;;5054628;28;20049;-77
2022/07/20 12:16:19;;;;;;;4.28;1.80;;;;;;;;;;5054729;28;20496;-77
2022/07/20 12:19:06;;;;;;;3.70;1.70;;;;;;;;;;5054828;28;20049;-79
2022/07/20 12:21:52;;;;;;;2.83;1.77;;;;;;;;;;5053682;28;20048;-75
2022/07/20 12:24:57;;;;;;;3.22;1.88;;;;;;;;;;5058916;28;20044;-75
2022/07/20 12:27:43;;;;;;;4.75;1.98;;;;;;;;;;5060060;28;20045;-76
2022/07/20 12:30:30;;;;;;;4.90;1.70;;;;;;;;;;5054650;28;20044;-75
2022/07/20 12:33:15;;;;;;;7.20;1.60;;;;;;;;;;5054798;28;20041;-75
2022/07/20 12:36:06;;;;;;;7.93;2.10;;;;;;;;;;5054644;28;20045;-75
2022/07/20 12:38:51;;;;;;;4.57;1.60;;;;;;;;;;5054023;28;20406;-79
2022/07/20 12:41:38;;;;;;;4.57;1.70;;;;;;;;;;5054316;28;20052;-78
2022/07/20 12:44:31;;;;;;;4.47;1.75;;;;;;;;;;5056456;28;20037;-78
2022/07/20 12:47:16;;;;;;;2.35;1.70;;;;;;;;;;5060412;28;20049;-78
2022/07/20 12:50:02;;;;;;;3.20;1.80;;;;;;;;;;5054632;28;20045;-78
2022/07/20 12:52:48;;;;;;;2.95;1.42;;;;;;;;;;5053714;28;20040;-78
2022/07/20 12:55:33;;;;;;;3.15;1.50;;;;;;;;;;5053918;28;20049;-79
2022/07/20 12:58:19;;;;;;;8.45;2.08;;;;;;;;;;5053963;28;20053;-78
2022/07/20 13:01:05;;;;;;;3.83;1.60;;;;;;;;;;5060143;28;20490;-78
2022/07/20 13:03:50;;;;;;;2.65;1.65;;;;;;;;;;5054198;28;20048;-78
2022/07/20 13:06:36;;;;;;;5.40;1.67;;;;;;;;;;5053793;28;20045;-78
2022/07/20 13:09:23;;;;;;;5.15;1.48;;;;;;;;;;5053749;28;20049;-78
2022/07/20 13:12:09;;;;;;;6.28;1.73;;;;;;;;;;5060566;28;20053;-78
2022/07/20 13:14:54;;;;;;;3.35;1.67;;;;;;;;;;5053272;28;20049;-80
2022/07/20 13:17:40;;;;;;;5.13;1.60;;;;;;;;;;5053430;28;20041;-78
2022/07/20 13:20:26;;;;;;;3.80;1.90;;;;;;;;;;5053525;28;20044;-79
2022/07/20 13:23:11;;;;;;;4.75;1.63;;;;;;;;;;5053377;28;20044;-78
2022/07/20 13:25:57;;;;;;;3.55;1.48;;;;;;;;;;5052944;28;20048;-78
2022/07/20 13:28:42;;;;;;;4.90;1.70;;;;;;;;;;5052951;28;20057;-78
2022/07/20 13:31:30;;;;;;;3.35;1.50;;;;;;;;;;5053898;28;20045;-79
2022/07/20 13:34:16;;;;;;;4.38;1.85;;;;;;;;;;5053518;28;20399;-78
2022/07/20 13:37:01;;;;;;;3.53;1.52;;;;;;;;;;5052856;28;20045;-78
2022/07/20 13:39:47;;;;;;;3.75;1.55;;;;;;;;;;5053562;28;20041;-77
2022/07/20 13:42:32;;;;;;;2.85;1.52;;;;;;;;;;5059691;28;20045;-77
2022/07/20 13:45:18;;;;;;;3.05;1.58;;;;;;;;;;5053754;28;20041;-77
2022/07/20 13:48:04;;;;;;;3.08;1.67;;;;;;;;;;5053397;28;20045;-77
2022/07/20 13:50:49;;;;;;;3.50;1.80;;;;;;;;;;5052771;28;20045;-78
2022/07/20 13:53:35;;;;;;;1.70;1.58;;;;;;;;;;5053665;28;20467;-76
2022/07/20 13:56:22;;;;;;;2.40;1.67;;;;;;;;;;5059645;28;20048;-76
2022/07/20 13:59:08;;;;;;;3.03;1.45;;;;;;;;;;5045056;28;20052;-78
2022/07/20 14:01:53;;;;;;;1.88;1.60;;;;;;;;;;5053542;28;20390;-77
2022/07/20 14:04:39;;;;;;;4.03;1.60;;;;;;;;;;5052725;28;20041;-79
2022/07/20 14:07:24;;;;;;;1.55;1.35;;;;;;;;;;5059850;28;20041;-79
2022/07/20 14:10:10;;;;;;;3.30;1.52;;;;;;;;;;5059775;28;20041;-78
2022/07/20 14:12:56;;;;;;;4.13;1.50;;;;;;;;;;5053036;28;20049;-77
2022/07/20 14:15:42;;;;;;;3.35;1.50;;;;;;;;;;5053415;28;20049;-79
2022/07/20 14:18:26;;;;;;;3.08;1.73;;;;;;;;;;5052436;28;20112;-77
2022/07/20 14:21:12;;;;;;;4.80;1.88;;;;;;;;;;5060060;28;20033;-79
2022/07/20 14:23:57;;;;;;;3.60;1.63;;;;;;;;;;5053244;28;20037;-82
2022/07/20 14:26:43;;;;;;;4.05;1.58;;;;;;;;;;5052420;28;20053;-77
2022/07/20 14:29:28;;;;;;;5.28;1.75;;;;;;;;;;5053312;28;20037;-77
2022/07/20 14:32:14;;;;;;;3.80;1.75;;;;;;;;;;5052485;28;20049;-77
2022/07/20 14:34:59;;;;;;;1.95;1.50;;;;;;;;;;5053016;28;20052;-77
2022/07/20 14:37:45;;;;;;;4.25;1.98;;;;;;;;;;5056324;28;20052;-77
2022/07/20 14:40:30;;;;;;;2.85;1.77;;;;;;;;;;5055865;28;20044;-78
2022/07/20 14:43:16;;;;;;;3.88;1.83;;;;;;;;;;5056556;28;20402;-77
2022/07/20 14:46:02;;;;;;;1.65;1.50;;;;;;;;;;5055901;28;20037;-77
2022/07/20 14:48:48;;;;;;;5.35;1.90;;;;;;;;;;5057137;28;20049;-76
2022/07/20 14:51:33;;;;;;;2.05;1.60;;;;;;;;;;5063453;28;20041;-78
2022/07/20 14:54:19;;;;;;;2.92;1.90;;;;;;;;;;5055817;28;20044;-77
2022/07/20 14:57:04;;;;;;;7.72;1.85;;;;;;;;;;5063032;28;20129;-78
2022/07/20 14:59:53;;;;;;;7.20;1.92;;;;;;;;;;5056487;28;20049;-77
2022/07/20 15:02:38;;;;;;;3.85;1.65;;;;;;;;;;5062578;28;20494;-81
2022/07/20 15:05:24;;;;;;;4.63;1.67;;;;;;;;;;5055834;28;20037;-80
2022/07/20 15:08:10;;;;;;;6.07;2.00;;;;;;;;;;5054841;28;20045;-82
2022/07/20 15:10:57;;;;;;;4.38;1.83;;;;;;;;;;5062923;28;20045;-78
2022/07/20 15:13:43;;;;;;;4.90;1.70;;;;;;;;;;5055993;28;20049;-77
2022/07/20 15:16:28;;;;;;;3.72;1.75;;;;;;;;;;5061975;28;20479;-77
2022/07/20 15:19:14;;;;;;;2.72;1.60;;;;;;;;;;5055488;28;20442;-77
2022/07/20 15:21:59;;;;;;;3.92;1.88;;;;;;;;;;5061255;28;20452;-79
2022/07/20 15:24:45;;;;;;;3.85;1.88;;;;;;;;;;5055667;28;20041;-76
2022/07/20 15:27:31;;;;;;;1.80;1.70;;;;;;;;;;5055828;28;20048;-75
2022/07/20 15:30:16;;;;;;;6.68;1.85;;;;;;;;;;5061930;28;20045;-76
2022/07/20 15:33:02;;;;;;;3.30;1.70;;;;;;;;;;5055771;28;20052;-76
2022/07/20 15:35:48;;;;;;;6.35;1.90;;;;;;;;;;5055384;28;20044;-77
2022/07/20 15:38:33;;;;;;;8.98;1.80;;;;;;;;;;5055014;28;20045;-75
2022/07/20 15:41:22;;;;;;;5.57;2.50;;;;;;;;;;5055557;28;20487;-77
2022/07/20 15:44:07;;;;;;;4.07;2.00;;;;;;;;;;5057877;28;20041;-77
2022/07/20 15:46:52;;;;;;;3.65;1.77;;;;;;;;;;5055452;28;20041;-77
2022/07/20 15:49:39;;;;;;;2.88;1.70;;;;;;;;;;5061361;28;20041;-77
2022/07/20 15:52:27;;;;;;;4.63;1.95;;;;;;;;;;5055026;28;20045;-77
2022/07/20 15:55:13;;;;;;;2.92;1.75;;;;;;;;;;5055683;28;20389;-77
2022/07/20 15:57:59;;;;;;;2.63;1.45;;;;;;;;;;5054708;28;20048;-78
2022/07/20 16:00:45;;;;;;;6.25;2.08;;;;;;;;;;5062069;28;20045;-78
2022/07/20 16:03:31;;;;;;;2.45;1.63;;;;;;;;;;5054991;28;20049;-78
2022/07/20 16:06:15;;;;;;;6.20;1.83;;;;;;;;;;5054434;28;20037;-77
2022/07/20 16:09:02;;;;;;;3.33;1.77;;;;;;;;;;5054827;28;20391;-78
2022/07/20 16:11:48;;;;;;;4.13;1.50;;;;;;;;;;5060730;28;20052;-79
2022/07/20 16:14:33;;;;;;;3.95;1.80;;;;;;;;;;5054921;28;20498;-77
2022/07/20 16:17:19;;;;;;;2.08;1.60;;;;;;;;;;5054704;28;20426;-77
2022/07/20 16:20:10;;;;;;;5.80;1.70;;;;;;;;;;5061015;28;20049;-78
2022/07/20 16:22:55;;;;;;;4.68;2.00;;;;;;;;;;5055036;28;20045;-78
2022/07/20 16:25:41;;;;;;;3.60;1.90;;;;;;;;;;5061061;28;20482;-78
2022/07/20 16:28:26;;;;;;;1.85;1.70;;;;;;;;;;5054563;28;20049;-78
2022/07/20 16:31:12;;;;;;;4.20;1.92;;;;;;;;;;5054782;28;20414;-78
2022/07/20 16:33:58;;;;;;;6.45;2.03;;;;;;;;;;5054023;28;20040;-78
2022/07/20 16:36:44;;;;;;;5.15;1.90;;;;;;;;;;5054507;28;20045;-79
2022/07/20 16:39:31;;;;;;;7.88;1.88;;;;;;;;;;5054258;28;20041;-78
2022/07/20 16:42:17;;;;;;;4.30;1.80;;;;;;;;;;5060778;28;20478;-77